Terminal Aerodrome Forecast
Issued by NWS

Home | Current Version | Previous Version | Text Only | Print | Product List | Glossary On
Versions: 1 2 3 4 5 6 7 8 9 10 11 12 13 14 15 16 17 18 19 20 21 22 23 24 25 26 27 28 29 30 31 32 33
000
FTUS41 KPBZ 220500 CCA
TAFZZV
TAF COR
KZZV 220537Z 2206/2306 VRB03KT P6SM VCTS SCT020 BKN035CB
      TEMPO 2206/2208 2SM TSRA OVC020CB
     FM220800 VRB05KT 3SM BR BKN015
      TEMPO 2209/2212 BKN008 OVC015
     FM221400 20005KT 6SM -RA VCTS BKN030CB=

USA.gov is the U.S. government's official web portal to all federal, state and local government web resources and services.